sensor_id;sensor_type;location;lat;lon;timestamp;P1;durP1;ratioP1;P2;durP2;ratioP2
43933;SDS011;59081;42.706;23.306;2023-04-01T00:00:28;23.95;;;12.93;;
43933;SDS011;59081;42.706;23.306;2023-04-01T00:02:53;22.73;;;12.45;;
43933;SDS011;59081;42.706;23.306;2023-04-01T00:05:19;21.58;;;13.00;;
43933;SDS011;59081;42.706;23.306;2023-04-01T00:07:44;25.38;;;13.10;;
43933;SDS011;59081;42.706;23.306;2023-04-01T00:10:11;32.67;;;13.65;;
43933;SDS011;59081;42.706;23.306;2023-04-01T00:12:37;29.90;;;13.55;;
43933;SDS011;59081;42.706;23.306;2023-04-01T00:15:05;26.00;;;12.13;;
43933;SDS011;59081;42.706;23.306;2023-04-01T00:17:32;26.10;;;13.30;;
43933;SDS011;59081;42.706;23.306;2023-04-01T00:20:00;30.50;;;13.20;;
43933;SDS011;59081;42.706;23.306;2023-04-01T00:22:27;24.02;;;12.77;;
43933;SDS011;59081;42.706;23.306;2023-04-01T00:24:53;23.73;;;12.80;;
43933;SDS011;59081;42.706;23.306;2023-04-01T00:27:18;20.58;;;12.02;;
43933;SDS011;59081;42.706;23.306;2023-04-01T00:29:45;26.83;;;12.30;;
43933;SDS011;59081;42.706;23.306;2023-04-01T00:32:13;22.58;;;12.63;;
43933;SDS011;59081;42.706;23.306;2023-04-01T00:34:39;29.70;;;14.43;;
43933;SDS011;59081;42.706;23.306;2023-04-01T00:37:06;24.75;;;13.05;;
43933;SDS011;59081;42.706;23.306;2023-04-01T00:39:33;26.85;;;13.25;;
43933;SDS011;59081;42.706;23.306;2023-04-01T00:41:59;26.95;;;12.60;;
43933;SDS011;59081;42.706;23.306;2023-04-01T00:44:27;22.77;;;11.27;;
43933;SDS011;59081;42.706;23.306;2023-04-01T00:46:55;21.35;;;10.98;;
43933;SDS011;59081;42.706;23.306;2023-04-01T00:49:31;22.15;;;10.88;;
43933;SDS011;59081;42.706;23.306;2023-04-01T00:52:00;20.95;;;10.95;;
43933;SDS011;59081;42.706;23.306;2023-04-01T00:54:31;22.77;;;10.45;;
43933;SDS011;59081;42.706;23.306;2023-04-01T00:59:53;21.52;;;10.10;;
43933;SDS011;59081;42.706;23.306;2023-04-01T01:02:20;20.25;;;10.93;;
43933;SDS011;59081;42.706;23.306;2023-04-01T01:04:48;21.38;;;9.52;;
43933;SDS011;59081;42.706;23.306;2023-04-01T01:15:26;22.92;;;10.38;;
43933;SDS011;59081;42.706;23.306;2023-04-01T01:32:16;19.73;;;8.90;;
43933;SDS011;59081;42.706;23.306;2023-04-01T01:37:48;20.85;;;9.25;;
43933;SDS011;59081;42.706;23.306;2023-04-01T01:42:47;20.90;;;9.57;;
43933;SDS011;59081;42.706;23.306;2023-04-01T01:45:18;21.95;;;9.70;;
43933;SDS011;59081;42.706;23.306;2023-04-01T01:47:46;16.83;;;9.48;;
43933;SDS011;59081;42.706;23.306;2023-04-01T01:50:14;20.55;;;9.70;;
43933;SDS011;59081;42.706;23.306;2023-04-01T01:52:40;18.80;;;9.18;;
43933;SDS011;59081;42.706;23.306;2023-04-01T01:55:22;21.20;;;8.35;;
43933;SDS011;59081;42.706;23.306;2023-04-01T01:57:53;20.25;;;9.02;;
43933;SDS011;59081;42.706;23.306;2023-04-01T02:00:24;19.30;;;8.57;;
43933;SDS011;59081;42.706;23.306;2023-04-01T02:02:50;17.02;;;8.85;;
43933;SDS011;59081;42.706;23.306;2023-04-01T02:05:25;15.73;;;9.07;;
43933;SDS011;59081;42.706;23.306;2023-04-01T02:07:55;14.52;;;9.70;;
43933;SDS011;59081;42.706;23.306;2023-04-01T02:10:37;15.25;;;8.73;;
43933;SDS011;59081;42.706;23.306;2023-04-01T02:13:19;23.45;;;8.05;;
43933;SDS011;59081;42.706;23.306;2023-04-01T02:15:52;20.15;;;9.05;;
43933;SDS011;59081;42.706;23.306;2023-04-01T02:18:25;15.75;;;8.15;;
43933;SDS011;59081;42.706;23.306;2023-04-01T02:20:51;22.73;;;8.40;;
43933;SDS011;59081;42.706;23.306;2023-04-01T02:23:17;16.45;;;8.55;;
43933;SDS011;59081;42.706;23.306;2023-04-01T02:25:42;29.58;;;9.68;;
43933;SDS011;59081;42.706;23.306;2023-04-01T02:28:10;20.35;;;9.05;;
43933;SDS011;59081;42.706;23.306;2023-04-01T02:30:41;17.13;;;8.68;;
43933;SDS011;59081;42.706;23.306;2023-04-01T02:33:09;13.45;;;8.65;;
43933;SDS011;59081;42.706;23.306;2023-04-01T02:35:35;17.17;;;8.50;;
43933;SDS011;59081;42.706;23.306;2023-04-01T02:38:02;18.50;;;7.93;;
43933;SDS011;59081;42.706;23.306;2023-04-01T02:40:28;19.17;;;7.78;;
43933;SDS011;59081;42.706;23.306;2023-04-01T02:42:53;18.15;;;8.02;;
43933;SDS011;59081;42.706;23.306;2023-04-01T02:45:19;17.20;;;7.70;;
43933;SDS011;59081;42.706;23.306;2023-04-01T02:47:44;19.92;;;8.32;;
43933;SDS011;59081;42.706;23.306;2023-04-01T02:50:10;18.67;;;9.10;;
43933;SDS011;59081;42.706;23.306;2023-04-01T02:52:36;25.30;;;10.80;;
43933;SDS011;59081;42.706;23.306;2023-04-01T02:55:02;19.30;;;9.20;;
43933;SDS011;59081;42.706;23.306;2023-04-01T02:57:28;23.42;;;9.88;;
43933;SDS011;59081;42.706;23.306;2023-04-01T02:59:54;21.90;;;11.32;;
43933;SDS011;59081;42.706;23.306;2023-04-01T03:02:19;19.10;;;10.68;;
43933;SDS011;59081;42.706;23.306;2023-04-01T03:04:45;23.20;;;9.98;;
43933;SDS011;59081;42.706;23.306;2023-04-01T03:07:10;23.60;;;10.05;;
43933;SDS011;59081;42.706;23.306;2023-04-01T03:09:36;15.98;;;9.45;;
43933;SDS011;59081;42.706;23.306;2023-04-01T03:12:02;21.90;;;11.70;;
43933;SDS011;59081;42.706;23.306;2023-04-01T03:14:28;36.65;;;12.63;;
43933;SDS011;59081;42.706;23.306;2023-04-01T03:16:53;18.80;;;11.07;;
43933;SDS011;59081;42.706;23.306;2023-04-01T03:19:19;23.02;;;11.27;;
43933;SDS011;59081;42.706;23.306;2023-04-01T03:21:45;23.42;;;12.73;;
43933;SDS011;59081;42.706;23.306;2023-04-01T03:24:10;28.67;;;13.45;;
43933;SDS011;59081;42.706;23.306;2023-04-01T03:26:36;23.38;;;10.68;;
43933;SDS011;59081;42.706;23.306;2023-04-01T03:29:02;19.10;;;10.38;;
43933;SDS011;59081;42.706;23.306;2023-04-01T03:31:27;18.80;;;11.27;;
43933;SDS011;59081;42.706;23.306;2023-04-01T03:33:53;21.55;;;10.85;;
43933;SDS011;59081;42.706;23.306;2023-04-01T03:36:18;24.02;;;11.05;;
43933;SDS011;59081;42.706;23.306;2023-04-01T03:38:44;18.58;;;11.43;;
43933;SDS011;59081;42.706;23.306;2023-04-01T03:41:14;22.30;;;10.57;;
43933;SDS011;59081;42.706;23.306;2023-04-01T03:43:41;17.67;;;10.15;;
43933;SDS011;59081;42.706;23.306;2023-04-01T03:46:06;18.35;;;9.65;;
43933;SDS011;59081;42.706;23.306;2023-04-01T03:48:32;18.30;;;10.15;;
43933;SDS011;59081;42.706;23.306;2023-04-01T03:50:57;18.23;;;11.40;;
43933;SDS011;59081;42.706;23.306;2023-04-01T03:53:23;23.38;;;11.05;;
43933;SDS011;59081;42.706;23.306;2023-04-01T03:55:49;18.67;;;10.25;;
43933;SDS011;59081;42.706;23.306;2023-04-01T03:58:16;20.70;;;9.82;;
43933;SDS011;59081;42.706;23.306;2023-04-01T04:00:43;20.48;;;11.32;;
43933;SDS011;59081;42.706;23.306;2023-04-01T04:03:08;22.88;;;10.75;;
43933;SDS011;59081;42.706;23.306;2023-04-01T04:05:34;17.40;;;10.52;;
43933;SDS011;59081;42.706;23.306;2023-04-01T04:08:00;28.02;;;11.57;;
43933;SDS011;59081;42.706;23.306;2023-04-01T04:10:26;22.42;;;11.40;;
43933;SDS011;59081;42.706;23.306;2023-04-01T04:12:52;23.17;;;10.85;;
43933;SDS011;59081;42.706;23.306;2023-04-01T04:15:17;24.65;;;11.95;;
43933;SDS011;59081;42.706;23.306;2023-04-01T04:17:46;19.70;;;10.48;;
43933;SDS011;59081;42.706;23.306;2023-04-01T04:20:12;20.05;;;10.98;;
43933;SDS011;59081;42.706;23.306;2023-04-01T04:22:37;20.52;;;9.75;;
43933;SDS011;59081;42.706;23.306;2023-04-01T04:25:05;21.77;;;10.18;;
43933;SDS011;59081;42.706;23.306;2023-04-01T04:27:32;17.08;;;9.10;;
43933;SDS011;59081;42.706;23.306;2023-04-01T04:29:58;18.67;;;9.35;;
43933;SDS011;59081;42.706;23.306;2023-04-01T04:32:23;21.70;;;9.68;;
43933;SDS011;59081;42.706;23.306;2023-04-01T04:34:49;18.35;;;8.52;;
43933;SDS011;59081;42.706;23.306;2023-04-01T04:37:15;18.52;;;8.60;;
43933;SDS011;59081;42.706;23.306;2023-04-01T04:39:40;19.27;;;9.07;;
43933;SDS011;59081;42.706;23.306;2023-04-01T04:42:06;18.48;;;8.18;;
43933;SDS011;59081;42.706;23.306;2023-04-01T04:44:31;19.42;;;8.13;;
43933;SDS011;59081;42.706;23.306;2023-04-01T04:46:57;18.30;;;8.75;;
43933;SDS011;59081;42.706;23.306;2023-04-01T04:49:22;20.90;;;9.25;;
43933;SDS011;59081;42.706;23.306;2023-04-01T04:51:50;14.70;;;8.55;;
43933;SDS011;59081;42.706;23.306;2023-04-01T04:54:17;20.67;;;8.00;;
43933;SDS011;59081;42.706;23.306;2023-04-01T04:56:42;26.35;;;9.60;;
43933;SDS011;59081;42.706;23.306;2023-04-01T04:59:08;22.92;;;9.77;;
43933;SDS011;59081;42.706;23.306;2023-04-01T05:01:34;20.65;;;7.78;;
43933;SDS011;59081;42.706;23.306;2023-04-01T05:03:59;15.68;;;7.65;;
43933;SDS011;59081;42.706;23.306;2023-04-01T05:06:27;12.38;;;6.47;;
43933;SDS011;59081;42.706;23.306;2023-04-01T05:08:54;20.85;;;8.75;;
43933;SDS011;59081;42.706;23.306;2023-04-01T05:11:20;19.58;;;9.10;;
43933;SDS011;59081;42.706;23.306;2023-04-01T05:13:46;17.75;;;8.65;;
43933;SDS011;59081;42.706;23.306;2023-04-01T05:16:13;17.73;;;8.57;;
43933;SDS011;59081;42.706;23.306;2023-04-01T05:18:41;21.33;;;8.43;;
43933;SDS011;59081;42.706;23.306;2023-04-01T05:21:07;12.07;;;6.45;;
43933;SDS011;59081;42.706;23.306;2023-04-01T05:23:33;22.75;;;8.00;;
43933;SDS011;59081;42.706;23.306;2023-04-01T05:26:06;21.77;;;10.38;;
43933;SDS011;59081;42.706;23.306;2023-04-01T05:28:36;25.75;;;12.32;;
43933;SDS011;59081;42.706;23.306;2023-04-01T05:31:02;21.20;;;11.45;;
43933;SDS011;59081;42.706;23.306;2023-04-01T05:33:28;22.67;;;9.27;;
43933;SDS011;59081;42.706;23.306;2023-04-01T05:35:55;15.98;;;7.35;;
43933;SDS011;59081;42.706;23.306;2023-04-01T05:38:20;21.23;;;8.70;;
43933;SDS011;59081;42.706;23.306;2023-04-01T05:40:46;22.50;;;9.23;;
43933;SDS011;59081;42.706;23.306;2023-04-01T05:43:12;25.60;;;13.57;;
43933;SDS011;59081;42.706;23.306;2023-04-01T05:45:37;25.98;;;11.25;;
43933;SDS011;59081;42.706;23.306;2023-04-01T05:48:03;17.00;;;8.25;;
43933;SDS011;59081;42.706;23.306;2023-04-01T05:50:29;31.90;;;10.55;;
43933;SDS011;59081;42.706;23.306;2023-04-01T05:52:54;14.52;;;7.85;;
43933;SDS011;59081;42.706;23.306;2023-04-01T05:55:20;16.95;;;7.22;;
43933;SDS011;59081;42.706;23.306;2023-04-01T05:57:46;12.40;;;6.47;;
43933;SDS011;59081;42.706;23.306;2023-04-01T06:00:13;17.05;;;8.48;;
43933;SDS011;59081;42.706;23.306;2023-04-01T06:02:39;13.85;;;7.20;;
43933;SDS011;59081;42.706;23.306;2023-04-01T06:08:26;15.50;;;7.40;;
43933;SDS011;59081;42.706;23.306;2023-04-01T06:11:01;16.15;;;6.80;;
43933;SDS011;59081;42.706;23.306;2023-04-01T06:13:41;19.30;;;5.93;;
43933;SDS011;59081;42.706;23.306;2023-04-01T06:22:01;13.88;;;6.60;;
43933;SDS011;59081;42.706;23.306;2023-04-01T06:38:21;12.02;;;5.10;;
43933;SDS011;59081;42.706;23.306;2023-04-01T06:43:49;12.52;;;5.13;;
43933;SDS011;59081;42.706;23.306;2023-04-01T06:49:24;8.23;;;4.25;;
43933;SDS011;59081;42.706;23.306;2023-04-01T06:54:31;14.35;;;4.95;;
43933;SDS011;59081;42.706;23.306;2023-04-01T06:59:50;11.38;;;3.75;;
43933;SDS011;59081;42.706;23.306;2023-04-01T07:02:24;9.07;;;3.88;;
43933;SDS011;59081;42.706;23.306;2023-04-01T07:05:11;13.57;;;4.18;;
43933;SDS011;59081;42.706;23.306;2023-04-01T07:07:52;10.32;;;5.10;;
43933;SDS011;59081;42.706;23.306;2023-04-01T07:13:18;10.07;;;4.60;;
43933;SDS011;59081;42.706;23.306;2023-04-01T07:15:55;9.80;;;5.43;;
43933;SDS011;59081;42.706;23.306;2023-04-01T07:18:29;11.00;;;5.50;;
43933;SDS011;59081;42.706;23.306;2023-04-01T07:20:59;11.13;;;4.03;;
43933;SDS011;59081;42.706;23.306;2023-04-01T07:23:28;12.25;;;5.20;;
43933;SDS011;59081;42.706;23.306;2023-04-01T07:26:03;7.88;;;4.95;;
43933;SDS011;59081;42.706;23.306;2023-04-01T07:28:52;12.80;;;5.22;;
43933;SDS011;59081;42.706;23.306;2023-04-01T07:34:07;15.30;;;6.63;;
43933;SDS011;59081;42.706;23.306;2023-04-01T07:36:43;10.38;;;5.60;;
43933;SDS011;59081;42.706;23.306;2023-04-01T07:39:22;8.70;;;6.10;;
43933;SDS011;59081;42.706;23.306;2023-04-01T07:42:00;13.10;;;5.85;;
43933;SDS011;59081;42.706;23.306;2023-04-01T07:44:46;13.40;;;4.97;;
43933;SDS011;59081;42.706;23.306;2023-04-01T07:50:06;17.65;;;5.68;;
43933;SDS011;59081;42.706;23.306;2023-04-01T08:01:00;17.30;;;9.30;;
43933;SDS011;59081;42.706;23.306;2023-04-01T08:06:18;15.52;;;6.65;;
43933;SDS011;59081;42.706;23.306;2023-04-01T08:14:51;16.52;;;8.38;;
43933;SDS011;59081;42.706;23.306;2023-04-01T08:20:03;21.38;;;6.18;;
43933;SDS011;59081;42.706;23.306;2023-04-01T08:22:52;10.23;;;5.22;;
43933;SDS011;59081;42.706;23.306;2023-04-01T08:25:30;14.07;;;5.13;;
43933;SDS011;59081;42.706;23.306;2023-04-01T08:28:09;13.43;;;4.82;;
43933;SDS011;59081;42.706;23.306;2023-04-01T08:58:36;7.28;;;3.97;;
43933;SDS011;59081;42.706;23.306;2023-04-01T09:01:32;8.88;;;3.85;;
43933;SDS011;59081;42.706;23.306;2023-04-01T09:04:46;8.10;;;3.47;;
43933;SDS011;59081;42.706;23.306;2023-04-01T09:21:13;8.85;;;4.28;;
43933;SDS011;59081;42.706;23.306;2023-04-01T09:24:05;15.57;;;3.88;;
43933;SDS011;59081;42.706;23.306;2023-04-01T09:35:23;10.67;;;3.43;;
43933;SDS011;59081;42.706;23.306;2023-04-01T09:38:14;8.75;;;2.88;;
43933;SDS011;59081;42.706;23.306;2023-04-01T09:40:55;7.93;;;2.65;;
43933;SDS011;59081;42.706;23.306;2023-04-01T09:43:23;7.82;;;2.58;;
43933;SDS011;59081;42.706;23.306;2023-04-01T10:01:31;15.68;;;3.85;;
43933;SDS011;59081;42.706;23.306;2023-04-01T10:04:09;7.10;;;2.75;;
43933;SDS011;59081;42.706;23.306;2023-04-01T10:12:45;10.80;;;3.95;;
43933;SDS011;59081;42.706;23.306;2023-04-01T10:17:56;9.93;;;4.63;;
43933;SDS011;59081;42.706;23.306;2023-04-01T11:23:45;11.38;;;5.13;;
43933;SDS011;59081;42.706;23.306;2023-04-01T11:26:32;11.18;;;4.35;;
43933;SDS011;59081;42.706;23.306;2023-04-01T11:40:27;16.60;;;2.45;;
43933;SDS011;59081;42.706;23.306;2023-04-01T11:43:17;6.63;;;2.40;;
43933;SDS011;59081;42.706;23.306;2023-04-01T11:45:53;13.40;;;2.83;;
43933;SDS011;59081;42.706;23.306;2023-04-01T11:48:54;6.38;;;2.30;;
43933;SDS011;59081;42.706;23.306;2023-04-01T11:58:02;4.82;;;2.85;;
43933;SDS011;59081;42.706;23.306;2023-04-01T12:17:09;14.85;;;6.32;;
43933;SDS011;59081;42.706;23.306;2023-04-01T12:25:34;11.45;;;4.35;;
43933;SDS011;59081;42.706;23.306;2023-04-01T13:07:30;6.93;;;4.32;;
43933;SDS011;59081;42.706;23.306;2023-04-01T13:18:17;11.00;;;4.47;;
43933;SDS011;59081;42.706;23.306;2023-04-01T13:26:34;7.28;;;4.35;;
43933;SDS011;59081;42.706;23.306;2023-04-01T13:29:06;10.23;;;4.95;;
43933;SDS011;59081;42.706;23.306;2023-04-01T13:36:56;8.48;;;3.97;;
43933;SDS011;59081;42.706;23.306;2023-04-01T13:45:19;5.95;;;2.22;;
43933;SDS011;59081;42.706;23.306;2023-04-01T13:50:47;4.45;;;1.83;;
43933;SDS011;59081;42.706;23.306;2023-04-01T13:53:41;3.60;;;1.83;;
43933;SDS011;59081;42.706;23.306;2023-04-01T14:01:32;1.15;;;1.05;;
43933;SDS011;59081;42.706;23.306;2023-04-01T14:04:09;2.67;;;1.05;;
43933;SDS011;59081;42.706;23.306;2023-04-01T14:12:09;4.07;;;1.30;;
43933;SDS011;59081;42.706;23.306;2023-04-01T14:14:56;5.93;;;1.52;;
43933;SDS011;59081;42.706;23.306;2023-04-01T14:20:23;2.70;;;1.38;;
43933;SDS011;59081;42.706;23.306;2023-04-01T14:25:46;6.30;;;1.48;;
43933;SDS011;59081;42.706;23.306;2023-04-01T14:31:00;7.25;;;3.38;;
43933;SDS011;59081;42.706;23.306;2023-04-01T14:36:50;7.68;;;3.55;;
43933;SDS011;59081;42.706;23.306;2023-04-01T14:39:34;7.45;;;3.47;;
43933;SDS011;59081;42.706;23.306;2023-04-01T14:50:28;8.30;;;3.33;;
43933;SDS011;59081;42.706;23.306;2023-04-01T14:55:34;7.50;;;3.20;;
43933;SDS011;59081;42.706;23.306;2023-04-01T14:58:14;7.37;;;2.93;;
43933;SDS011;59081;42.706;23.306;2023-04-01T15:03:48;9.68;;;4.22;;
43933;SDS011;59081;42.706;23.306;2023-04-01T15:06:39;6.03;;;3.60;;
43933;SDS011;59081;42.706;23.306;2023-04-01T15:31:54;10.67;;;2.47;;
43933;SDS011;59081;42.706;23.306;2023-04-01T15:34:45;8.23;;;2.85;;
43933;SDS011;59081;42.706;23.306;2023-04-01T15:45:41;10.77;;;4.00;;
43933;SDS011;59081;42.706;23.306;2023-04-01T15:48:40;2.53;;;1.83;;
43933;SDS011;59081;42.706;23.306;2023-04-01T15:51:38;6.90;;;1.40;;
43933;SDS011;59081;42.706;23.306;2023-04-01T15:54:24;1.38;;;1.27;;
43933;SDS011;59081;42.706;23.306;2023-04-01T15:57:11;1.88;;;1.58;;
43933;SDS011;59081;42.706;23.306;2023-04-01T16:03:14;5.15;;;2.58;;
43933;SDS011;59081;42.706;23.306;2023-04-01T16:08:59;3.55;;;2.38;;
43933;SDS011;59081;42.706;23.306;2023-04-01T16:14:31;4.60;;;3.05;;
43933;SDS011;59081;42.706;23.306;2023-04-01T16:17:35;2.85;;;2.03;;
43933;SDS011;59081;42.706;23.306;2023-04-01T16:22:45;7.47;;;4.30;;
43933;SDS011;59081;42.706;23.306;2023-04-01T16:28:03;4.90;;;3.75;;
43933;SDS011;59081;42.706;23.306;2023-04-01T16:30:40;3.45;;;2.97;;
43933;SDS011;59081;42.706;23.306;2023-04-01T16:38:26;5.53;;;3.72;;
43933;SDS011;59081;42.706;23.306;2023-04-01T16:41:10;5.63;;;4.38;;
43933;SDS011;59081;42.706;23.306;2023-04-01T16:43:42;3.28;;;2.67;;
43933;SDS011;59081;42.706;23.306;2023-04-01T16:49:03;3.95;;;2.50;;
43933;SDS011;59081;42.706;23.306;2023-04-01T16:51:43;3.67;;;2.63;;
43933;SDS011;59081;42.706;23.306;2023-04-01T16:56:54;4.93;;;2.20;;
43933;SDS011;59081;42.706;23.306;2023-04-01T16:59:37;4.00;;;2.25;;
43933;SDS011;59081;42.706;23.306;2023-04-01T17:02:28;2.95;;;1.65;;
43933;SDS011;59081;42.706;23.306;2023-04-01T17:05:08;2.28;;;1.70;;
43933;SDS011;59081;42.706;23.306;2023-04-01T17:15:45;3.55;;;1.90;;
43933;SDS011;59081;42.706;23.306;2023-04-01T17:23:50;2.45;;;2.22;;
43933;SDS011;59081;42.706;23.306;2023-04-01T17:32:07;3.22;;;1.83;;
43933;SDS011;59081;42.706;23.306;2023-04-01T17:34:56;3.20;;;2.35;;
43933;SDS011;59081;42.706;23.306;2023-04-01T17:45:28;10.25;;;5.78;;
43933;SDS011;59081;42.706;23.306;2023-04-01T18:07:23;3.33;;;2.97;;
43933;SDS011;59081;42.706;23.306;2023-04-01T18:10:14;4.40;;;2.92;;
43933;SDS011;59081;42.706;23.306;2023-04-01T18:24:14;3.55;;;2.80;;
43933;SDS011;59081;42.706;23.306;2023-04-01T18:32:31;2.97;;;2.70;;
43933;SDS011;59081;42.706;23.306;2023-04-01T18:38:11;2.10;;;1.90;;
43933;SDS011;59081;42.706;23.306;2023-04-01T18:46:07;3.20;;;2.78;;
43933;SDS011;59081;42.706;23.306;2023-04-01T18:51:46;2.70;;;2.50;;
43933;SDS011;59081;42.706;23.306;2023-04-01T18:54:32;4.03;;;2.97;;
43933;SDS011;59081;42.706;23.306;2023-04-01T18:57:10;2.90;;;2.60;;
43933;SDS011;59081;42.706;23.306;2023-04-01T19:07:47;3.55;;;2.70;;
43933;SDS011;59081;42.706;23.306;2023-04-01T19:10:21;2.33;;;1.88;;
43933;SDS011;59081;42.706;23.306;2023-04-01T19:26:09;3.75;;;2.83;;
43933;SDS011;59081;42.706;23.306;2023-04-01T19:42:56;1.48;;;1.20;;
43933;SDS011;59081;42.706;23.306;2023-04-01T19:51:25;2.58;;;1.85;;
43933;SDS011;59081;42.706;23.306;2023-04-01T20:04:58;2.00;;;1.73;;
43933;SDS011;59081;42.706;23.306;2023-04-01T20:07:41;1.67;;;1.40;;
43933;SDS011;59081;42.706;23.306;2023-04-01T20:10:14;2.38;;;1.80;;
43933;SDS011;59081;42.706;23.306;2023-04-01T20:15:34;2.35;;;1.77;;
43933;SDS011;59081;42.706;23.306;2023-04-01T20:18:05;10.88;;;3.28;;
43933;SDS011;59081;42.706;23.306;2023-04-01T20:26:39;2.60;;;1.85;;
43933;SDS011;59081;42.706;23.306;2023-04-01T20:29:35;2.90;;;1.70;;
43933;SDS011;59081;42.706;23.306;2023-04-01T20:41:27;2.50;;;1.80;;
43933;SDS011;59081;42.706;23.306;2023-04-01T20:46:39;2.20;;;1.90;;
43933;SDS011;59081;42.706;23.306;2023-04-01T20:51:53;1.95;;;1.55;;
43933;SDS011;59081;42.706;23.306;2023-04-01T21:00:36;2.88;;;2.35;;
43933;SDS011;59081;42.706;23.306;2023-04-01T21:06:12;2.78;;;1.88;;
43933;SDS011;59081;42.706;23.306;2023-04-01T21:11:22;7.63;;;2.33;;
43933;SDS011;59081;42.706;23.306;2023-04-01T21:30:47;1.83;;;1.50;;
43933;SDS011;59081;42.706;23.306;2023-04-01T21:33:28;1.30;;;1.05;;
43933;SDS011;59081;42.706;23.306;2023-04-01T21:36:19;3.92;;;2.13;;
43933;SDS011;59081;42.706;23.306;2023-04-01T21:39:01;1.10;;;1.00;;
43933;SDS011;59081;42.706;23.306;2023-04-01T21:44:41;1.73;;;1.40;;
43933;SDS011;59081;42.706;23.306;2023-04-01T21:58:49;2.70;;;1.25;;
43933;SDS011;59081;42.706;23.306;2023-04-01T22:12:36;9.80;;;4.03;;
43933;SDS011;59081;42.706;23.306;2023-04-01T22:17:51;2.65;;;1.60;;
43933;SDS011;59081;42.706;23.306;2023-04-01T22:20:30;2.42;;;1.52;;
43933;SDS011;59081;42.706;23.306;2023-04-01T22:31:02;2.38;;;1.75;;
43933;SDS011;59081;42.706;23.306;2023-04-01T22:42:29;4.95;;;2.53;;
43933;SDS011;59081;42.706;23.306;2023-04-01T22:53:15;1.65;;;1.33;;
43933;SDS011;59081;42.706;23.306;2023-04-01T22:55:56;6.15;;;3.83;;
43933;SDS011;59081;42.706;23.306;2023-04-01T22:58:33;1.55;;;1.10;;
43933;SDS011;59081;42.706;23.306;2023-04-01T23:01:06;2.05;;;1.13;;
43933;SDS011;59081;42.706;23.306;2023-04-01T23:03:37;1.48;;;1.27;;
43933;SDS011;59081;42.706;23.306;2023-04-01T23:06:06;1.88;;;0.98;;
43933;SDS011;59081;42.706;23.306;2023-04-01T23:17:31;2.22;;;1.05;;
43933;SDS011;59081;42.706;23.306;2023-04-01T23:27:37;1.17;;;1.00;;
43933;SDS011;59081;42.706;23.306;2023-04-01T23:33:26;2.03;;;1.20;;
43933;SDS011;59081;42.706;23.306;2023-04-01T23:36:11;0.90;;;0.77;;
43933;SDS011;59081;42.706;23.306;2023-04-01T23:38:42;1.58;;;1.10;;
43933;SDS011;59081;42.706;23.306;2023-04-01T23:41:20;1.92;;;0.90;;
43933;SDS011;59081;42.706;23.306;2023-04-01T23:44:00;2.63;;;1.10;;
43933;SDS011;59081;42.706;23.306;2023-04-01T23:46:30;2.33;;;1.10;;
43933;SDS011;59081;42.706;23.306;2023-04-01T23:48:58;3.45;;;1.08;;
43933;SDS011;59081;42.706;23.306;2023-04-01T23:51:27;4.65;;;1.40;;
43933;SDS011;59081;42.706;23.306;2023-04-01T23:54:10;4.75;;;1.20;;
43933;SDS011;59081;42.706;23.306;2023-04-01T23:56:50;5.75;;;1.10;;
43933;SDS011;59081;42.706;23.306;2023-04-01T23:59:29;3.15;;;1.10;;
